Scf Provider — A8YG8 — position and weather

sailwx.info

Track history (hours):
 
Tides and Currents Weather Stations Pressure Air Temp Water Temp Dewpoint Dewpoint Depression Visibility Wind Speed Wind Dir Waves Ship Positions

Scf Provider

Last reported at 2018-Mar-28 11:25 UTC. Time now 2018-Apr-21 02:16 UTC.
Position N 38°23' W 074°33'.
Warning: this ship's position is 23 days out of date.

Length 228 m; draft 8.3 m.

Type: Ship. MMSI: 636015051.

Date/timePositionNaut miles runAvg speedWind from/ knotsBaromVisibWave heightAir tempDewpointWater temp
2018-Mar-28 11:25N 38°23' W 074°33'1111.7
2018-Mar-28 10:28N 38°29' W 074°45'811.5
2018-Mar-28 09:46N 38°35' W 074°51'510.1
2018-Mar-28 09:15N 38°39' W 074°55'310.1
2018-Mar-28 08:58N 38°42' W 074°57'5 9.9
2018-Mar-28 08:30N 38°45' W 075°01'5 9.6
2018-Mar-28 08:00N 38°49' W 075°03'5 7.5
2018-Mar-28 07:25N 38°54' W 075°06'611.1
2018-Mar-28 06:55N 38°59' W 075°08'613.9
2018-Mar-28 06:30N 39°04' W 075°11'714.9
2018-Mar-28 06:00N 39°10' W 075°16'815.9
2018-Mar-28 05:30N 39°17' W 075°22'816.5
2018-Mar-28 05:01N 39°23' W 075°29'714.7
2018-Mar-28 04:30N 39°29' W 075°34'713.2
2018-Mar-28 04:00N 39°36' W 075°34'510.8
2018-Mar-28 03:30N 39°41' W 075°31'5 9.2
2018-Mar-28 03:00N 39°45' W 075°29'3 6.8
2018-Mar-28 02:30N 39°48' W 075°26'2 4.4
2018-Mar-28 02:00N 39°49' W 075°24'0 0.1
2018-Mar-28 01:30N 39°49' W 075°24'0 0.0
2018-Mar-28 01:00N 39°49' W 075°24'0 0.0
2018-Mar-28 00:30N 39°49' W 075°24'0 0.0
2018-Mar-28 00:00N 39°49' W 075°24'0 0.0
2018-Mar-27 23:30N 39°49' W 075°24'0 0.0
2018-Mar-27 23:00N 39°49' W 075°24'0 0.3
2018-Mar-27 22:30N 39°49' W 075°24'0 0.2
2018-Mar-27 22:00N 39°49' W 075°24'0 0.1
2018-Mar-27 21:30N 39°49' W 075°24'0 0.0
2018-Mar-27 21:00N 39°49' W 075°24'0 0.0
2018-Mar-27 20:30N 39°49' W 075°24'0 0.1
2018-Mar-27 20:00N 39°49' W 075°24'1 1.0
2018-Mar-27 19:30N 39°49' W 075°23'3 6.3
2018-Mar-27 19:00N 39°51' W 075°20'5 9.1
2018-Mar-27 18:30N 39°51' W 075°14'1 2.3
2018-Mar-27 17:58N 39°52' W 075°13'0 0.0
2018-Mar-27 17:28N 39°52' W 075°13'0 0.0
2018-Mar-27 16:58N 39°52' W 075°13'0 0.0
2018-Mar-27 16:28N 39°52' W 075°13'0 0.0
2018-Mar-27 15:58N 39°52' W 075°13'0 0.0
2018-Mar-27 15:28N 39°52' W 075°13'0 0.0
2018-Mar-27 14:58N 39°52' W 075°13'0 0.0
2018-Mar-27 14:28N 39°52' W 075°13'0 0.0
2018-Mar-27 13:58N 39°52' W 075°13'0 0.0
2018-Mar-27 13:28N 39°52' W 075°13'0 0.0
2018-Mar-27 12:58N 39°52' W 075°13'0 0.0
2018-Mar-27 12:28N 39°52' W 075°13'0 0.0
2018-Mar-27 11:58N 39°52' W 075°13'0 0.0
2018-Mar-27 11:28N 39°52' W 075°13'0 0.0
2018-Mar-27 10:58N 39°52' W 075°13'0 0.0
2018-Mar-27 10:28N 39°52' W 075°13'0 0.0
2018-Mar-27 09:52N 39°52' W 075°13'0 0.0
2018-Mar-27 09:28N 39°52' W 075°13'0 0.0
2018-Mar-27 08:58N 39°52' W 075°13'0 0.0
2018-Mar-27 08:28N 39°52' W 075°13'0 0.0
2018-Mar-27 07:58N 39°52' W 075°13'0 0.0
2018-Mar-27 07:29N 39°52' W 075°13'0 0.0
2018-Mar-27 06:59N 39°52' W 075°13'0 0.0
2018-Mar-27 06:28N 39°52' W 075°13'0 0.0
2018-Mar-27 05:58N 39°52' W 075°13'0 0.0
2018-Mar-27 05:28N 39°52' W 075°13'0 0.0
2018-Mar-27 04:59N 39°52' W 075°13'0 0.0
2018-Mar-27 04:28N 39°52' W 075°13'0 0.0
2018-Mar-27 03:58N 39°52' W 075°13'0 0.0
2018-Mar-27 03:28N 39°52' W 075°13'0 0.0
2018-Mar-27 02:58N 39°52' W 075°13'0 0.0
2018-Mar-27 02:28N 39°52' W 075°13'0 0.0
2018-Mar-27 01:58N 39°52' W 075°13'0 0.0
2018-Mar-27 01:28N 39°52' W 075°13'0 0.0
2018-Mar-27 00:58N 39°52' W 075°13'0 0.0
2018-Mar-27 00:30N 39°52' W 075°13'1 2.6
2018-Mar-26 23:59N 39°51' W 075°14'4 7.6
2018-Mar-26 23:30N 39°51' W 075°19'5 9.4
2018-Mar-26 23:00N 39°48' W 075°24'5 9.7
2018-Mar-26 22:30N 39°45' W 075°29'510.0
2018-Mar-26 22:00N 39°41' W 075°31'5 9.8
2018-Mar-26 21:30N 39°36' W 075°34'611.1
2018-Mar-26 21:00N 39°31' W 075°33'611.6
2018-Mar-26 20:30N 39°25' W 075°31'612.7
2018-Mar-26 20:00N 39°20' W 075°26'611.4
2018-Mar-26 19:30N 39°16' W 075°21'612.0
2018-Mar-26 19:00N 39°11' W 075°16'713.6
2018-Mar-26 18:30N 39°06' W 075°12'714.6
2018-Mar-26 18:00N 38°59' W 075°08'714.1
2018-Mar-26 17:30N 38°52' W 075°05'22 7.5
2018-Mar-26 14:37N 38°35' W 074°48'2 8.5
2018-Mar-26 14:24N 38°34' W 074°46'  
Track history (hours):
 
Tides and Currents Weather Stations Pressure Air Temp Water Temp Dewpoint Dewpoint Depression Visibility Wind Speed Wind Dir Waves Ship Positions

Scf Provider

Last reported at 2018-Mar-28 11:25 UTC. Time now 2018-Apr-21 02:16 UTC.
Position N 38°23' W 074°33'.
Warning: this ship's position is 23 days out of date.

Length 228 m; draft 8.3 m.

Type: Ship. MMSI: 636015051.

Date/timePositionNaut miles runAvg speedWind from/ knotsBaromVisibWave heightAir tempDewpointWater temp
2018-Mar-28 11:25N 38°23' W 074°33'1111.7
2018-Mar-28 10:28N 38°29' W 074°45'811.5
2018-Mar-28 09:46N 38°35' W 074°51'510.1
2018-Mar-28 09:15N 38°39' W 074°55'310.1
2018-Mar-28 08:58N 38°42' W 074°57'5 9.9
2018-Mar-28 08:30N 38°45' W 075°01'5 9.6
2018-Mar-28 08:00N 38°49' W 075°03'5 7.5
2018-Mar-28 07:25N 38°54' W 075°06'611.1
2018-Mar-28 06:55N 38°59' W 075°08'613.9
2018-Mar-28 06:30N 39°04' W 075°11'714.9
2018-Mar-28 06:00N 39°10' W 075°16'815.9
2018-Mar-28 05:30N 39°17' W 075°22'816.5
2018-Mar-28 05:01N 39°23' W 075°29'714.7
2018-Mar-28 04:30N 39°29' W 075°34'713.2
2018-Mar-28 04:00N 39°36' W 075°34'510.8
2018-Mar-28 03:30N 39°41' W 075°31'5 9.2
2018-Mar-28 03:00N 39°45' W 075°29'3 6.8
2018-Mar-28 02:30N 39°48' W 075°26'2 4.4
2018-Mar-28 02:00N 39°49' W 075°24'0 0.1
2018-Mar-28 01:30N 39°49' W 075°24'0 0.0
2018-Mar-28 01:00N 39°49' W 075°24'0 0.0
2018-Mar-28 00:30N 39°49' W 075°24'0 0.0
2018-Mar-28 00:00N 39°49' W 075°24'0 0.0
2018-Mar-27 23:30N 39°49' W 075°24'0 0.0
2018-Mar-27 23:00N 39°49' W 075°24'0 0.3
2018-Mar-27 22:30N 39°49' W 075°24'0 0.2
2018-Mar-27 22:00N 39°49' W 075°24'0 0.1
2018-Mar-27 21:30N 39°49' W 075°24'0 0.0
2018-Mar-27 21:00N 39°49' W 075°24'0 0.0
2018-Mar-27 20:30N 39°49' W 075°24'0 0.1
2018-Mar-27 20:00N 39°49' W 075°24'1 1.0
2018-Mar-27 19:30N 39°49' W 075°23'3 6.3
2018-Mar-27 19:00N 39°51' W 075°20'5 9.1
2018-Mar-27 18:30N 39°51' W 075°14'1 2.3
2018-Mar-27 17:58N 39°52' W 075°13'0 0.0
2018-Mar-27 17:28N 39°52' W 075°13'0 0.0
2018-Mar-27 16:58N 39°52' W 075°13'0 0.0
2018-Mar-27 16:28N 39°52' W 075°13'0 0.0
2018-Mar-27 15:58N 39°52' W 075°13'0 0.0
2018-Mar-27 15:28N 39°52' W 075°13'0 0.0
2018-Mar-27 14:58N 39°52' W 075°13'0 0.0
2018-Mar-27 14:28N 39°52' W 075°13'0 0.0
2018-Mar-27 13:58N 39°52' W 075°13'0 0.0
2018-Mar-27 13:28N 39°52' W 075°13'0 0.0
2018-Mar-27 12:58N 39°52' W 075°13'0 0.0
2018-Mar-27 12:28N 39°52' W 075°13'0 0.0
2018-Mar-27 11:58N 39°52' W 075°13'0 0.0
2018-Mar-27 11:28N 39°52' W 075°13'0 0.0
2018-Mar-27 10:58N 39°52' W 075°13'0 0.0
2018-Mar-27 10:28N 39°52' W 075°13'0 0.0
2018-Mar-27 09:52N 39°52' W 075°13'0 0.0
2018-Mar-27 09:28N 39°52' W 075°13'0 0.0
2018-Mar-27 08:58N 39°52' W 075°13'0 0.0
2018-Mar-27 08:28N 39°52' W 075°13'0 0.0
2018-Mar-27 07:58N 39°52' W 075°13'0 0.0
2018-Mar-27 07:29N 39°52' W 075°13'0 0.0
2018-Mar-27 06:59N 39°52' W 075°13'0 0.0
2018-Mar-27 06:28N 39°52' W 075°13'0 0.0
2018-Mar-27 05:58N 39°52' W 075°13'0 0.0
2018-Mar-27 05:28N 39°52' W 075°13'0 0.0
2018-Mar-27 04:59N 39°52' W 075°13'0 0.0
2018-Mar-27 04:28N 39°52' W 075°13'0 0.0
2018-Mar-27 03:58N 39°52' W 075°13'0 0.0
2018-Mar-27 03:28N 39°52' W 075°13'0 0.0
2018-Mar-27 02:58N 39°52' W 075°13'0 0.0
2018-Mar-27 02:28N 39°52' W 075°13'0 0.0
2018-Mar-27 01:58N 39°52' W 075°13'0 0.0
2018-Mar-27 01:28N 39°52' W 075°13'0 0.0
2018-Mar-27 00:58N 39°52' W 075°13'0 0.0
2018-Mar-27 00:30N 39°52' W 075°13'1 2.6
2018-Mar-26 23:59N 39°51' W 075°14'4 7.6
2018-Mar-26 23:30N 39°51' W 075°19'5 9.4
2018-Mar-26 23:00N 39°48' W 075°24'5 9.7
2018-Mar-26 22:30N 39°45' W 075°29'510.0
2018-Mar-26 22:00N 39°41' W 075°31'5 9.8
2018-Mar-26 21:30N 39°36' W 075°34'611.1
2018-Mar-26 21:00N 39°31' W 075°33'611.6
2018-Mar-26 20:30N 39°25' W 075°31'612.7
2018-Mar-26 20:00N 39°20' W 075°26'611.4
2018-Mar-26 19:30N 39°16' W 075°21'612.0
2018-Mar-26 19:00N 39°11' W 075°16'713.6
2018-Mar-26 18:30N 39°06' W 075°12'714.6
2018-Mar-26 18:00N 38°59' W 075°08'714.1
2018-Mar-26 17:30N 38°52' W 075°05'22 7.5
2018-Mar-26 14:37N 38°35' W 074°48'2 8.5
2018-Mar-26 14:24N 38°34' W 074°46'  

Dump ship's entire track history